createdAt,value
2023-03-26T00:00:01.596Z,7.51
2023-03-26T00:02:35.528Z,7.36
2023-03-26T00:05:07.466Z,7.47
2023-03-26T00:07:40.401Z,7.26
2023-03-26T00:10:12.690Z,7.50
2023-03-26T00:12:47.623Z,7.41
2023-03-26T00:15:20.459Z,7.45
2023-03-26T00:17:54.660Z,7.49
2023-03-26T00:20:28.561Z,7.59
2023-03-26T00:23:02.261Z,7.66
2023-03-26T00:25:35.878Z,7.67
2023-03-26T00:28:11.258Z,7.55
2023-03-26T00:30:43.259Z,7.57
2023-03-26T00:33:18.520Z,7.62
2023-03-26T00:35:55.394Z,7.54
2023-03-26T00:38:29.467Z,7.59
2023-03-26T00:41:07.293Z,7.70
2023-03-26T00:43:41.844Z,7.70
2023-03-26T00:46:15.477Z,7.61
2023-03-26T00:48:48.013Z,7.50
2023-03-26T00:51:21.778Z,7.57
2023-03-26T00:53:54.201Z,7.60
2023-03-26T00:56:25.592Z,7.55
2023-03-26T00:59:00.578Z,7.91
2023-03-26T01:01:35.657Z,7.52
2023-03-26T01:04:28.756Z,7.57
2023-03-26T01:07:05.027Z,7.68
2023-03-26T01:09:43.682Z,7.57
2023-03-26T01:12:19.758Z,7.60
2023-03-26T01:14:58.169Z,7.56
2023-03-26T01:17:34.447Z,7.46
2023-03-26T01:20:16.014Z,7.55
2023-03-26T01:22:52.852Z,7.42
2023-03-26T01:25:34.994Z,7.35
2023-03-26T01:28:13.442Z,7.20
2023-03-26T01:30:52.669Z,7.36
2023-03-26T01:33:34.558Z,7.25
2023-03-26T01:36:17.366Z,7.17
2023-03-26T01:39:01.216Z,7.09
2023-03-26T01:41:44.907Z,7.29
2023-03-26T01:44:29.185Z,6.84
2023-03-26T01:47:04.560Z,6.81
2023-03-26T01:49:37.160Z,6.65
2023-03-26T01:52:18.830Z,6.92
2023-03-26T01:54:50.747Z,6.73
2023-03-26T01:57:35.978Z,6.80
2023-03-26T02:00:21.662Z,6.79
2023-03-26T02:03:05.172Z,6.70
2023-03-26T02:05:40.791Z,6.69
2023-03-26T02:08:23.031Z,6.61
2023-03-26T02:10:59.370Z,6.60
2023-03-26T02:13:34.500Z,6.72
2023-03-26T02:16:10.895Z,6.76
2023-03-26T02:18:44.687Z,6.79
2023-03-26T02:21:20.584Z,6.68
2023-03-26T02:23:58.587Z,6.60
2023-03-26T02:26:30.089Z,6.53
2023-03-26T02:29:05.123Z,6.68
2023-03-26T02:31:37.470Z,6.54
2023-03-26T02:34:09.200Z,6.55
2023-03-26T02:36:43.356Z,6.52
2023-03-26T02:39:16.136Z,6.59
2023-03-26T02:41:47.619Z,6.53
2023-03-26T02:44:22.171Z,6.61
2023-03-26T02:46:53.713Z,6.54
2023-03-26T02:49:25.870Z,6.55
2023-03-26T02:51:58.173Z,6.51
2023-03-26T02:54:30.122Z,6.45
2023-03-26T02:57:01.544Z,6.48
2023-03-26T02:59:36.848Z,6.55
2023-03-26T03:02:08.455Z,6.63
2023-03-26T03:04:40.758Z,6.57
2023-03-26T03:07:18.882Z,6.69
2023-03-26T03:09:51.626Z,6.72
2023-03-26T03:12:23.202Z,6.63
2023-03-26T03:14:57.714Z,6.71
2023-03-26T03:17:29.332Z,6.64
2023-03-26T03:20:01.235Z,6.63
2023-03-26T03:22:34.468Z,6.87
2023-03-26T03:25:09.985Z,6.72
2023-03-26T03:27:42.264Z,6.76
2023-03-26T03:30:17.978Z,6.72
2023-03-26T03:32:49.589Z,6.86
2023-03-26T03:35:21.610Z,6.94
2023-03-26T03:37:55.813Z,6.92
2023-03-26T03:40:27.798Z,6.86
2023-03-26T03:42:59.121Z,6.84
2023-03-26T03:45:34.559Z,6.91
2023-03-26T03:48:06.173Z,7.01
2023-03-26T03:50:37.972Z,6.85
2023-03-26T03:53:09.589Z,6.82
2023-03-26T03:55:42.369Z,6.95
2023-03-26T03:58:15.012Z,6.91
2023-03-26T04:00:49.762Z,7.05
2023-03-26T04:03:33.264Z,6.95
2023-03-26T04:06:07.232Z,6.82
2023-03-26T04:08:39.178Z,6.87
2023-03-26T04:11:11.303Z,6.89
2023-03-26T04:13:43.214Z,7.01
2023-03-26T04:16:18.864Z,6.95
2023-03-26T04:18:51.014Z,7.08
2023-03-26T04:21:24.567Z,6.88
2023-03-26T04:23:56.928Z,6.83
2023-03-26T04:26:32.081Z,6.86
2023-03-26T04:29:07.116Z,6.93
2023-03-26T04:31:43.723Z,6.85
2023-03-26T04:34:24.749Z,6.74
2023-03-26T04:36:57.497Z,6.83
2023-03-26T04:39:30.733Z,6.63
2023-03-26T04:42:02.906Z,6.62
2023-03-26T04:44:35.718Z,6.60
2023-03-26T04:47:10.772Z,6.62
2023-03-26T04:49:42.624Z,6.68
2023-03-26T04:52:15.877Z,6.62
2023-03-26T04:54:49.105Z,6.56
2023-03-26T04:57:28.367Z,6.69
2023-03-26T05:00:00.408Z,6.65
2023-03-26T05:02:38.020Z,6.54
2023-03-26T05:05:10.597Z,6.59
2023-03-26T05:07:42.795Z,6.80
2023-03-26T05:10:20.585Z,6.64
2023-03-26T05:12:52.779Z,6.78
2023-03-26T05:15:25.772Z,6.88
2023-03-26T05:18:00.756Z,6.92
2023-03-26T05:20:34.133Z,6.82
2023-03-26T05:23:07.798Z,6.71
2023-03-26T05:25:40.042Z,6.73
2023-03-26T05:28:14.529Z,6.71
2023-03-26T05:30:46.745Z,6.77
2023-03-26T05:33:21.943Z,6.84
2023-03-26T05:36:04.600Z,6.64
2023-03-26T05:38:40.079Z,6.81
2023-03-26T05:41:14.632Z,6.95
2023-03-26T05:43:48.855Z,6.82
2023-03-26T05:46:23.371Z,6.88
2023-03-26T05:48:58.781Z,6.96
2023-03-26T05:51:30.745Z,7.01
2023-03-26T05:54:03.051Z,6.91
2023-03-26T05:56:34.992Z,6.87
2023-03-26T05:59:07.185Z,7.12
2023-03-26T06:01:39.006Z,7.03
2023-03-26T06:04:16.576Z,6.99
2023-03-26T06:06:48.660Z,7.01
2023-03-26T06:09:20.917Z,7.04
2023-03-26T06:11:53.609Z,7.31
2023-03-26T06:14:25.804Z,7.32
2023-03-26T06:16:57.748Z,7.41
2023-03-26T06:19:32.569Z,7.02
2023-03-26T06:22:04.341Z,7.00
2023-03-26T06:24:36.978Z,7.15
2023-03-26T06:27:08.802Z,7.10
2023-03-26T06:29:41.018Z,7.23
2023-03-26T06:32:19.611Z,7.54
2023-03-26T06:34:55.126Z,7.69
2023-03-26T06:37:26.806Z,7.72
2023-03-26T06:39:58.928Z,7.41
2023-03-26T06:43:08.668Z,7.50
2023-03-26T06:45:24.340Z,7.48
2023-03-26T06:47:56.247Z,7.42
2023-03-26T06:50:32.533Z,6.91
2023-03-26T06:53:04.371Z,7.17
2023-03-26T06:55:36.571Z,7.05
2023-03-26T06:58:08.434Z,7.32
2023-03-26T07:00:40.712Z,7.67
2023-03-26T07:03:12.505Z,7.79
2023-03-26T07:05:47.302Z,8.02
2023-03-26T07:08:19.891Z,7.97
2023-03-26T07:10:52.309Z,8.08
2023-03-26T07:13:24.341Z,7.80
2023-03-26T07:15:56.630Z,8.19
2023-03-26T07:18:28.609Z,7.99
2023-03-26T07:21:03.699Z,7.78
2023-03-26T07:23:36.111Z,7.83
2023-03-26T07:26:26.226Z,8.06
2023-03-26T07:29:05.419Z,8.29
2023-03-26T07:31:46.273Z,8.45
2023-03-26T07:34:35.138Z,7.91
2023-03-26T07:37:17.800Z,7.62
2023-03-26T07:39:58.528Z,7.84
2023-03-26T07:42:44.513Z,8.10
2023-03-26T07:45:25.813Z,8.15
2023-03-26T07:47:57.832Z,7.63
2023-03-26T07:50:29.712Z,7.52
2023-03-26T07:53:04.619Z,7.75
2023-03-26T07:55:36.982Z,7.86
2023-03-26T07:58:25.055Z,8.24
2023-03-26T08:01:04.212Z,8.16
2023-03-26T08:04:23.632Z,8.14
2023-03-26T08:07:01.612Z,8.18
2023-03-26T08:09:43.397Z,8.26
2023-03-26T08:12:26.133Z,8.41
2023-03-26T08:15:08.643Z,8.37
2023-03-26T08:17:48.155Z,7.84
2023-03-26T08:20:32.220Z,7.68
2023-03-26T08:23:12.305Z,7.63
2023-03-26T08:26:03.062Z,7.98
2023-03-26T08:28:51.100Z,7.62
2023-03-26T08:31:36.749Z,7.82
2023-03-26T08:34:10.336Z,7.99
2023-03-26T08:36:43.353Z,8.22
2023-03-26T08:39:14.929Z,8.27
2023-03-26T08:42:14.797Z,8.30
2023-03-26T08:45:15.701Z,8.67
2023-03-26T08:48:17.688Z,8.69
2023-03-26T08:50:48.784Z,8.71
2023-03-26T08:53:40.687Z,8.92
2023-03-26T08:56:23.411Z,9.06
2023-03-26T08:59:00.925Z,8.75
2023-03-26T09:01:58.470Z,8.70
2023-03-26T09:04:45.152Z,8.76
2023-03-26T09:07:45.845Z,8.97
2023-03-26T09:10:48.416Z,9.23
2023-03-26T09:13:38.057Z,9.22
2023-03-26T09:16:32.145Z,9.38
2023-03-26T09:19:30.238Z,9.12
2023-03-26T09:22:29.122Z,9.02
2023-03-26T09:25:21.612Z,9.05
2023-03-26T09:28:08.520Z,8.71
2023-03-26T09:30:42.896Z,9.01
2023-03-26T09:33:35.259Z,8.90
2023-03-26T09:36:25.174Z,8.90
2023-03-26T09:39:07.769Z,8.76
2023-03-26T09:41:46.391Z,7.86
2023-03-26T09:44:51.407Z,7.22
2023-03-26T09:47:43.456Z,7.11
2023-03-26T09:50:24.493Z,6.92
2023-03-26T09:53:15.907Z,6.89
2023-03-26T09:55:53.305Z,7.08
2023-03-26T09:58:56.057Z,7.19
2023-03-26T10:01:42.678Z,7.23
2023-03-26T10:04:27.822Z,7.50
2023-03-26T10:07:10.108Z,7.64
2023-03-26T10:09:57.225Z,7.82
2023-03-26T10:12:38.904Z,8.15
2023-03-26T10:15:30.639Z,8.43
2023-03-26T10:18:27.188Z,8.16
2023-03-26T10:21:08.747Z,7.73
2023-03-26T10:24:37.050Z,7.73
2023-03-26T10:27:28.661Z,7.74
2023-03-26T10:30:39.597Z,7.56
2023-03-26T10:33:25.212Z,7.81
2023-03-26T10:36:14.341Z,7.94
2023-03-26T10:39:03.555Z,7.84
2023-03-26T10:41:46.772Z,8.05
2023-03-26T10:44:53.798Z,8.11
2023-03-26T10:47:49.353Z,8.09
2023-03-26T10:50:50.592Z,8.23
2023-03-26T10:53:35.123Z,8.30
2023-03-26T10:56:16.875Z,8.48
2023-03-26T10:58:50.604Z,8.43
2023-03-26T11:01:39.553Z,8.39
2023-03-26T11:04:28.492Z,8.11
2023-03-26T11:07:12.080Z,8.40
2023-03-26T11:09:52.931Z,8.55
2023-03-26T11:12:36.662Z,8.65
2023-03-26T11:15:23.385Z,9.14
2023-03-26T11:18:09.985Z,9.60
2023-03-26T11:20:51.078Z,9.51
2023-03-26T11:23:37.084Z,9.74
2023-03-26T11:26:14.704Z,10.17
2023-03-26T11:29:03.849Z,10.70
2023-03-26T11:32:08.960Z,10.35
2023-03-26T11:34:48.538Z,10.00
2023-03-26T11:37:27.214Z,9.92
2023-03-26T11:40:03.220Z,9.75
2023-03-26T11:42:36.162Z,9.54
2023-03-26T11:45:17.976Z,9.57
2023-03-26T11:47:54.941Z,10.04
2023-03-26T11:50:33.059Z,10.30
2023-03-26T11:53:17.355Z,10.27
2023-03-26T11:55:59.524Z,10.18
2023-03-26T11:58:37.017Z,10.57
2023-03-26T12:01:18.034Z,10.42
2023-03-26T12:04:07.831Z,10.40
2023-03-26T12:06:53.513Z,10.34
2023-03-26T12:09:27.331Z,10.47
2023-03-26T12:12:07.113Z,10.60
2023-03-26T12:14:39.172Z,10.75
2023-03-26T12:17:15.199Z,10.56
2023-03-26T12:19:51.124Z,10.52
2023-03-26T12:22:38.216Z,10.49
2023-03-26T12:25:21.751Z,10.51
2023-03-26T12:27:56.872Z,10.60
2023-03-26T12:30:31.250Z,10.64
2023-03-26T12:33:07.563Z,10.78
2023-03-26T12:35:41.541Z,10.73
2023-03-26T12:38:28.410Z,11.01
2023-03-26T12:44:42.259Z,11.01
2023-03-26T12:44:54.549Z,11.42
2023-03-26T12:47:57.773Z,11.45
2023-03-26T12:50:17.554Z,10.88
2023-03-26T12:53:11.174Z,11.13
2023-03-26T12:55:58.974Z,11.31
2023-03-26T12:58:48.323Z,11.24
2023-03-26T13:01:31.533Z,11.18
2023-03-26T13:04:18.154Z,10.72
2023-03-26T13:06:59.600Z,10.61
2023-03-26T13:09:53.182Z,10.48
2023-03-26T13:12:41.317Z,10.63
2023-03-26T13:15:24.757Z,10.69
2023-03-26T13:18:11.579Z,10.82
2023-03-26T13:20:57.772Z,10.58
2023-03-26T13:23:41.283Z,10.95
2023-03-26T13:26:22.770Z,11.22
2023-03-26T13:29:10.876Z,11.45
2023-03-26T13:31:51.976Z,11.59
2023-03-26T13:34:34.561Z,11.24
2023-03-26T13:37:17.177Z,11.24
2023-03-26T13:40:01.243Z,11.36
2023-03-26T13:42:46.344Z,11.65
2023-03-26T13:45:37.862Z,11.57
2023-03-26T13:48:17.852Z,11.54
2023-03-26T13:51:00.117Z,10.72
2023-03-26T13:53:38.299Z,10.65
2023-03-26T13:56:15.312Z,10.80
2023-03-26T13:58:54.098Z,11.29
2023-03-26T14:01:43.862Z,11.38
2023-03-26T14:04:25.100Z,11.45
2023-03-26T14:07:07.264Z,11.42
2023-03-26T14:09:48.640Z,11.80
2023-03-26T14:12:34.305Z,11.77
2023-03-26T14:15:11.990Z,11.76
2023-03-26T14:17:53.565Z,11.89
2023-03-26T14:20:57.602Z,11.48
2023-03-26T14:23:42.374Z,11.75
2023-03-26T14:26:29.917Z,11.31
2023-03-26T14:29:28.942Z,10.90
2023-03-26T14:32:24.519Z,11.31
2023-03-26T14:35:23.790Z,11.24
2023-03-26T14:38:10.436Z,11.22
2023-03-26T14:41:01.136Z,11.29
2023-03-26T14:43:55.884Z,10.98
2023-03-26T14:46:43.118Z,11.31
2023-03-26T14:49:37.133Z,11.29
2023-03-26T14:52:16.929Z,11.21
2023-03-26T14:54:55.789Z,11.28
2023-03-26T14:57:46.611Z,11.32
2023-03-26T15:00:48.421Z,11.37
2023-03-26T15:04:01.973Z,11.01
2023-03-26T15:07:19.188Z,10.74
2023-03-26T15:10:40.948Z,10.92
2023-03-26T15:13:42.790Z,10.80
2023-03-26T15:16:44.690Z,10.71
2023-03-26T15:19:52.345Z,10.78
2023-03-26T15:22:43.832Z,10.80
2023-03-26T15:25:45.903Z,10.76
2023-03-26T15:28:56.669Z,10.44
2023-03-26T15:31:54.225Z,10.01
2023-03-26T15:34:58.342Z,10.15
2023-03-26T15:37:59.963Z,9.91
2023-03-26T15:40:54.567Z,9.74
2023-03-26T15:43:33.489Z,9.91
2023-03-26T15:46:36.288Z,10.07
2023-03-26T15:49:17.166Z,9.76
2023-03-26T15:51:57.869Z,9.84
2023-03-26T15:54:34.523Z,9.71
2023-03-26T15:57:20.261Z,9.62
2023-03-26T16:00:12.772Z,9.64
2023-03-26T16:02:56.234Z,9.58
2023-03-26T16:05:39.473Z,9.70
2023-03-26T16:08:22.392Z,9.57
2023-03-26T16:10:58.585Z,9.63
2023-03-26T16:13:46.490Z,9.59
2023-03-26T16:16:28.491Z,9.57
2023-03-26T16:19:41.559Z,9.44
2023-03-26T16:22:19.010Z,9.20
2023-03-26T16:25:28.569Z,9.34
2023-03-26T16:28:30.888Z,9.38
2023-03-26T16:31:37.555Z,9.39
2023-03-26T16:34:42.426Z,9.33
2023-03-26T16:37:40.186Z,9.38
2023-03-26T16:40:31.228Z,9.37
2023-03-26T16:43:17.348Z,9.33
2023-03-26T16:45:55.358Z,9.09
2023-03-26T16:48:33.729Z,9.08
2023-03-26T16:51:19.065Z,8.94
2023-03-26T16:53:58.981Z,8.96
2023-03-26T16:56:39.058Z,8.94
2023-03-26T16:59:37.747Z,8.76
2023-03-26T17:02:25.161Z,8.72
2023-03-26T17:05:09.723Z,8.79
2023-03-26T17:07:50.582Z,8.75
2023-03-26T17:10:33.763Z,8.51
2023-03-26T17:13:11.304Z,8.56
2023-03-26T17:15:51.688Z,8.65
2023-03-26T17:18:39.172Z,8.36
2023-03-26T17:21:18.629Z,8.38
2023-03-26T17:24:15.388Z,8.35
2023-03-26T17:26:58.822Z,8.36
2023-03-26T17:29:55.205Z,8.38
2023-03-26T17:32:58.221Z,8.37
2023-03-26T17:35:42.944Z,8.26
2023-03-26T17:38:45.258Z,8.26
2023-03-26T17:41:58.209Z,8.24
2023-03-26T17:44:43.627Z,8.04
2023-03-26T17:47:28.335Z,8.16
2023-03-26T17:50:06.265Z,8.11
2023-03-26T17:52:52.706Z,8.01
2023-03-26T17:55:31.300Z,8.15
2023-03-26T17:58:08.889Z,8.11
2023-03-26T18:00:46.675Z,8.03
2023-03-26T18:03:24.696Z,7.97
2023-03-26T18:06:00.677Z,7.95
2023-03-26T18:08:45.678Z,8.11
2023-03-26T18:11:39.549Z,8.03
2023-03-26T18:14:42.496Z,8.08
2023-03-26T18:17:24.265Z,8.05
2023-03-26T18:19:58.574Z,8.14
2023-03-26T18:22:32.440Z,8.12
2023-03-26T18:25:05.941Z,8.14
2023-03-26T18:27:43.249Z,8.21
2023-03-26T18:30:23.146Z,8.15
2023-03-26T18:33:00.251Z,8.03
2023-03-26T18:35:55.933Z,7.95
2023-03-26T18:38:35.679Z,8.03
2023-03-26T18:41:20.238Z,8.06
2023-03-26T18:43:51.995Z,8.11
2023-03-26T18:46:28.061Z,7.95
2023-03-26T18:49:00.416Z,7.85
2023-03-26T18:51:43.216Z,7.89
2023-03-26T18:54:24.499Z,7.79
2023-03-26T18:56:59.345Z,7.79
2023-03-26T18:59:34.175Z,7.73
2023-03-26T19:02:16.962Z,7.90
2023-03-26T19:04:51.343Z,7.69
2023-03-26T19:07:27.605Z,7.68
2023-03-26T19:10:00.671Z,7.43
2023-03-26T19:12:37.157Z,7.39
2023-03-26T19:15:15.416Z,7.38
2023-03-26T19:17:57.116Z,7.47
2023-03-26T19:20:32.341Z,7.46
2023-03-26T19:23:05.664Z,7.44
2023-03-26T19:25:43.903Z,7.36
2023-03-26T19:28:22.134Z,7.08
2023-03-26T19:30:58.946Z,7.23
2023-03-26T19:33:41.031Z,7.24
2023-03-26T19:36:23.032Z,7.14
2023-03-26T19:38:57.509Z,7.25
2023-03-26T19:41:33.676Z,7.17
2023-03-26T19:44:19.611Z,7.24
2023-03-26T19:46:54.304Z,7.23
2023-03-26T19:49:35.452Z,7.18
2023-03-26T19:52:18.425Z,7.21
2023-03-26T19:55:00.066Z,7.13
2023-03-26T19:57:36.947Z,7.05
2023-03-26T20:00:16.782Z,7.06
2023-03-26T20:02:57.900Z,6.89
2023-03-26T20:05:36.929Z,6.98
2023-03-26T20:08:17.107Z,6.97
2023-03-26T20:10:49.622Z,6.84
2023-03-26T20:13:21.722Z,6.77
2023-03-26T20:16:05.534Z,6.91
2023-03-26T20:18:39.150Z,6.69
2023-03-26T20:21:17.857Z,6.51
2023-03-26T20:23:50.129Z,6.55
2023-03-26T20:26:24.571Z,6.38
2023-03-26T20:28:57.566Z,6.37
2023-03-26T20:31:30.763Z,6.31
2023-03-26T20:34:03.055Z,6.31
2023-03-26T20:36:39.670Z,6.33
2023-03-26T20:39:12.514Z,6.14
2023-03-26T20:41:49.066Z,5.97
2023-03-26T20:44:23.457Z,6.21
2023-03-26T20:46:57.699Z,6.07
2023-03-26T20:49:30.196Z,5.98
2023-03-26T20:52:05.577Z,6.09
2023-03-26T20:54:38.053Z,5.93
2023-03-26T20:57:13.937Z,5.95
2023-03-26T20:59:46.441Z,6.11
2023-03-26T21:02:20.766Z,5.77
2023-03-26T21:04:54.372Z,5.90
2023-03-26T21:07:29.695Z,6.10
2023-03-26T21:10:03.720Z,6.10
2023-03-26T21:12:43.853Z,6.02
2023-03-26T21:15:23.423Z,5.95
2023-03-26T21:17:58.234Z,5.86
2023-03-26T21:20:33.284Z,5.85
2023-03-26T21:23:14.994Z,5.93
2023-03-26T21:25:56.862Z,5.78
2023-03-26T21:28:42.224Z,5.72
2023-03-26T21:31:19.173Z,5.67
2023-03-26T21:33:55.740Z,5.68
2023-03-26T21:36:28.663Z,5.85
2023-03-26T21:39:06.908Z,5.80
2023-03-26T21:41:46.846Z,5.68
2023-03-26T21:44:21.966Z,5.75
2023-03-26T21:46:54.610Z,5.56
2023-03-26T21:49:27.687Z,5.56
2023-03-26T21:52:00.426Z,5.56
2023-03-26T21:54:37.431Z,5.45
2023-03-26T21:57:35.466Z,5.65
2023-03-26T22:00:15.987Z,5.48
2023-03-26T22:02:59.188Z,5.36
2023-03-26T22:05:42.032Z,5.22
2023-03-26T22:08:23.785Z,5.17
2023-03-26T22:10:59.087Z,5.09
2023-03-26T22:13:31.373Z,4.81
2023-03-26T22:16:03.916Z,4.90
2023-03-26T22:18:36.060Z,4.99
2023-03-26T22:21:09.142Z,4.73
2023-03-26T22:23:41.227Z,4.53
2023-03-26T22:26:16.706Z,4.54
2023-03-26T22:28:48.946Z,4.52
2023-03-26T22:31:21.655Z,4.47
2023-03-26T22:33:54.236Z,4.39
2023-03-26T22:36:27.850Z,4.42
2023-03-26T22:38:59.863Z,4.27
2023-03-26T22:41:35.330Z,4.23
2023-03-26T22:44:19.232Z,4.21
2023-03-26T22:46:55.016Z,4.30
2023-03-26T22:49:30.594Z,4.16
2023-03-26T22:52:03.196Z,4.23
2023-03-26T22:54:37.156Z,4.19
2023-03-26T22:57:12.403Z,4.22
2023-03-26T22:59:44.526Z,4.36
2023-03-26T23:02:17.452Z,4.40
2023-03-26T23:05:03.252Z,4.40
2023-03-26T23:07:36.336Z,4.35
2023-03-26T23:10:09.791Z,4.24
2023-03-26T23:12:45.197Z,4.32
2023-03-26T23:15:16.954Z,4.20
2023-03-26T23:17:54.736Z,4.20
2023-03-26T23:20:34.390Z,4.23
2023-03-26T23:23:09.732Z,4.28
2023-03-26T23:25:42.490Z,4.25
2023-03-26T23:28:26.326Z,4.10
2023-03-26T23:31:03.136Z,4.13
2023-03-26T23:33:40.396Z,4.09
2023-03-26T23:36:13.426Z,3.94
2023-03-26T23:38:47.215Z,3.82
2023-03-26T23:41:25.741Z,3.83
2023-03-26T23:44:02.616Z,3.93
2023-03-26T23:46:36.609Z,3.75
2023-03-26T23:49:17.455Z,3.81
2023-03-26T23:51:54.903Z,3.85
2023-03-26T23:54:28.471Z,3.83
2023-03-26T23:57:02.262Z,3.82
2023-03-26T23:59:39.031Z,3.65
